Time;durP1;ratioP1;P1;durP2;ratioP2;P2;SDS_P1;SDS_P2;PMS_P1;PMS_P2;Temp;Humidity;BMP_temperature;BMP_pressure;BME280_temperature;BME280_humidity;BME280_pressure;Samples;Min_cycle;Max_cycle;Signal;HPM_P1;HPM_P2
2024/04/18 00:01:37;;;;;;;5.20;2.67;;;;;;;5.30;100.00;100558.34;5197764;27;20065;-84
2024/04/18 00:04:02;;;;;;;2.97;2.58;;;;;;;5.29;100.00;100559.22;5188806;27;20024;-82
2024/04/18 00:06:30;;;;;;;4.45;2.78;;;;;;;5.31;100.00;100554.06;5196323;27;20345;-86
2024/04/18 00:08:56;;;;;;;2.60;2.35;;;;;;;5.27;100.00;100565.25;5211973;27;20022;-84
2024/04/18 00:11:24;;;;;;;3.42;2.65;;;;;;;5.27;100.00;100573.03;5218298;27;20370;-85
2024/04/18 00:13:52;;;;;;;5.80;2.80;;;;;;;5.24;100.00;100573.88;5208412;27;20011;-85
2024/04/18 00:16:17;;;;;;;2.58;2.30;;;;;;;5.17;100.00;100568.59;5155624;27;20051;-85
2024/04/18 00:18:48;;;;;;;2.92;2.72;;;;;;;5.15;100.00;100573.78;5205064;27;20012;-85
2024/04/18 00:21:14;;;;;;;4.32;2.65;;;;;;;5.14;100.00;100574.63;5181210;27;20027;-85
2024/04/18 00:23:42;;;;;;;3.83;2.90;;;;;;;5.12;100.00;100578.91;5178787;27;20012;-84
2024/04/18 00:26:08;;;;;;;2.75;2.38;;;;;;;5.11;100.00;100577.16;5180651;27;20027;-83
2024/04/18 00:28:36;;;;;;;4.78;3.00;;;;;;;5.08;100.00;100585.78;5209307;27;20008;-86
2024/04/18 00:31:01;;;;;;;4.28;3.30;;;;;;;5.06;100.00;100591.81;5208278;27;20005;-84
2024/04/18 00:33:30;;;;;;;2.85;2.65;;;;;;;5.01;100.00;100589.16;5202320;27;20007;-84
2024/04/18 00:35:55;;;;;;;2.83;2.50;;;;;;;4.96;100.00;100589.09;5183121;27;20103;-84
2024/04/18 00:38:23;;;;;;;3.17;2.83;;;;;;;4.91;100.00;100595.09;5155206;27;20004;-84
2024/04/18 00:40:49;;;;;;;4.65;3.15;;;;;;;4.86;100.00;100596.75;5183916;27;20011;-84
2024/04/18 00:43:17;;;;;;;4.75;3.67;;;;;;;4.82;100.00;100590.63;5181266;27;20083;-86
2024/04/18 00:45:43;;;;;;;5.05;3.92;;;;;;;4.83;100.00;100592.38;5199622;27;20101;-82
2024/04/18 00:48:11;;;;;;;4.30;3.33;;;;;;;4.78;100.00;100597.53;5230774;27;20845;-86
2024/04/18 00:50:38;;;;;;;6.93;3.38;;;;;;;4.79;100.00;100601.84;5178291;27;20101;-83
2024/04/18 00:53:06;;;;;;;4.97;3.50;;;;;;;4.80;100.00;100600.13;5182430;27;20685;-82
2024/04/18 00:55:35;;;;;;;3.78;3.28;;;;;;;4.75;100.00;100600.06;5207756;27;20016;-85
2024/04/18 00:58:04;;;;;;;4.40;2.97;;;;;;;4.72;100.00;100596.53;5179982;27;20007;-83
2024/04/18 01:00:30;;;;;;;3.63;3.20;;;;;;;4.69;100.00;100599.97;5184884;27;20500;-84
2024/04/18 01:02:58;;;;;;;3.55;3.13;;;;;;;4.67;100.00;100613.75;5209746;27;20044;-86
2024/04/18 01:05:23;;;;;;;6.55;3.65;;;;;;;4.65;100.00;100611.16;5164568;27;20023;-85
2024/04/18 01:07:52;;;;;;;4.32;4.03;;;;;;;4.65;100.00;100605.97;5178021;27;20012;-86
2024/04/18 01:10:17;;;;;;;5.35;4.18;;;;;;;4.61;100.00;100607.63;5178878;27;20016;-84
2024/04/18 01:12:48;;;;;;;4.40;3.95;;;;;;;4.62;100.00;100611.13;5206383;27;20463;-83
2024/04/18 01:15:14;;;;;;;5.13;4.30;;;;;;;4.62;100.00;100617.16;5159154;27;20018;-82
2024/04/18 01:17:42;;;;;;;5.22;3.85;;;;;;;4.62;100.00;100619.75;5184582;27;20012;-83
2024/04/18 01:20:08;;;;;;;6.43;4.97;;;;;;;4.63;100.00;100624.09;5180335;27;20011;-84
2024/04/18 01:22:36;;;;;;;6.50;4.53;;;;;;;4.61;100.00;100618.00;5184731;27;20008;-84
2024/04/18 01:25:01;;;;;;;4.55;4.15;;;;;;;4.67;100.00;100621.53;5180396;27;20336;-84
2024/04/18 01:27:30;;;;;;;9.32;5.30;;;;;;;4.69;100.00;100623.31;5179435;27;20027;-84
2024/04/18 01:29:58;;;;;;;5.75;4.28;;;;;;;4.72;100.00;100627.66;5205961;27;20463;-87
2024/04/18 01:32:29;;;;;;;6.57;5.38;;;;;;;4.77;100.00;100621.72;5180298;27;20016;-85
2024/04/18 01:35:00;;;;;;;7.95;5.32;;;;;;;4.85;100.00;100627.00;5155289;27;20020;-87
2024/04/18 01:37:30;;;;;;;4.63;4.20;;;;;;;4.92;100.00;100634.00;5176146;27;20009;-85
2024/04/18 01:39:56;;;;;;;5.30;4.80;;;;;;;4.94;100.00;100629.72;5182919;27;20016;-85
2024/04/18 01:42:24;;;;;;;6.55;4.97;;;;;;;5.02;100.00;100636.72;5203803;27;20472;-85
2024/04/18 01:44:53;;;;;;;7.47;5.72;;;;;;;5.10;100.00;100638.56;5150682;27;20031;-83
2024/04/18 01:47:21;;;;;;;5.60;5.05;;;;;;;5.12;100.00;100636.88;5181250;27;20011;-86
2024/04/18 01:49:47;;;;;;;7.07;5.50;;;;;;;5.15;100.00;100636.06;5178753;27;20778;-85
2024/04/18 01:52:15;;;;;;;8.32;5.65;;;;;;;5.12;100.00;100634.28;5174978;27;20011;-84
2024/04/18 01:54:41;;;;;;;7.45;5.97;;;;;;;5.08;100.00;100636.81;5154565;27;20086;-83
2024/04/18 01:57:09;;;;;;;6.80;6.15;;;;;;;5.09;100.00;100646.34;5176100;27;20954;-85
2024/04/18 01:59:35;;;;;;;9.38;6.30;;;;;;;5.11;100.00;100642.03;5183773;27;20043;-83
2024/04/18 02:02:05;;;;;;;6.60;5.85;;;;;;;5.13;100.00;100642.94;5179029;27;20503;-85
2024/04/18 02:04:36;;;;;;;9.15;5.78;;;;;;;5.09;100.00;100639.41;5208262;27;20012;-84
2024/04/18 02:07:05;;;;;;;7.20;5.53;;;;;;;5.12;100.00;100654.16;5184236;27;20022;-85
2024/04/18 02:09:33;;;;;;;9.65;5.57;;;;;;;5.10;100.00;100648.97;5208658;27;20008;-84
2024/04/18 02:12:01;;;;;;;7.45;6.20;;;;;;;5.13;100.00;100656.78;5190253;27;20014;-86
2024/04/18 02:14:27;;;;;;;6.57;5.97;;;;;;;5.12;100.00;100652.47;5186501;27;20036;-85
2024/04/18 02:16:55;;;;;;;7.97;6.65;;;;;;;5.07;100.00;100650.63;5188317;27;20083;-83
2024/04/18 02:19:21;;;;;;;8.65;5.97;;;;;;;4.97;100.00;100655.69;5165721;27;20008;-86
2024/04/18 02:21:52;;;;;;;7.93;6.45;;;;;;;4.89;100.00;100654.72;5196428;27;20032;-85
2024/04/18 02:24:17;;;;;;;7.05;5.18;;;;;;;4.82;100.00;100652.88;5183386;27;20371;-85
2024/04/18 02:26:46;;;;;;;8.27;6.47;;;;;;;4.76;100.00;100658.88;5180945;27;20012;-84
2024/04/18 02:29:11;;;;;;;11.35;5.55;;;;;;;4.73;100.00;100656.22;5180496;27;20015;-86
2024/04/18 02:31:42;;;;;;;8.77;5.80;;;;;;;4.70;100.00;100661.34;5159187;27;20048;-86
2024/04/18 02:34:08;;;;;;;10.07;5.78;;;;;;;4.68;100.00;100659.59;5185201;27;20015;-85
2024/04/18 02:36:36;;;;;;;8.82;6.65;;;;;;;4.69;100.00;100662.19;5170043;27;20008;-84
2024/04/18 02:39:01;;;;;;;6.20;5.60;;;;;;;4.69;100.00;100664.78;5186118;27;20011;-87
2024/04/18 02:41:30;;;;;;;5.30;4.80;;;;;;;4.71;100.00;100664.84;5181149;27;20067;-86
2024/04/18 02:43:55;;;;;;;5.65;5.15;;;;;;;4.73;100.00;100666.59;5152005;27;20021;-86
2024/04/18 02:46:25;;;;;;;5.47;4.97;;;;;;;4.70;100.00;100668.28;5183950;27;20019;-86
2024/04/18 02:48:50;;;;;;;6.50;5.13;;;;;;;4.68;100.00;100673.44;5210262;27;20016;-85
2024/04/18 02:51:21;;;;;;;10.25;4.93;;;;;;;4.71;100.00;100672.63;5161237;27;20052;-86
2024/04/18 02:53:47;;;;;;;5.45;5.05;;;;;;;4.69;100.00;100676.91;5192082;27;20015;-86
2024/04/18 02:56:16;;;;;;;6.40;4.95;;;;;;;4.64;100.00;100671.63;5180284;27;20047;-85
2024/04/18 02:58:41;;;;;;;8.75;5.22;;;;;;;4.60;100.00;100673.31;5189683;27;20004;-85
2024/04/18 03:01:10;;;;;;;7.07;4.88;;;;;;;4.57;100.00;100678.44;5194527;27;20026;-87
2024/04/18 03:03:35;;;;;;;9.18;5.60;;;;;;;4.54;100.00;100675.81;5190267;27;20034;-86
2024/04/18 03:06:09;;;;;;;6.85;5.28;;;;;;;4.48;100.00;100680.88;5181607;27;20007;-84
2024/04/18 03:08:35;;;;;;;5.68;5.15;;;;;;;4.44;100.00;100684.28;5211159;27;20012;-87
2024/04/18 03:11:04;;;;;;;7.10;5.05;;;;;;;4.40;100.00;100680.75;5159022;27;20404;-86
2024/04/18 03:13:30;;;;;;;9.00;6.35;;;;;;;4.29;100.00;100688.34;5213730;27;20007;-85
2024/04/18 03:15:58;;;;;;;6.40;5.63;;;;;;;4.22;100.00;100685.63;5212675;27;20035;-85
2024/04/18 03:18:24;;;;;;;8.52;5.78;;;;;;;4.17;100.00;100682.94;5210827;27;20052;-85
2024/04/18 03:20:56;;;;;;;6.28;5.28;;;;;;;4.11;100.00;100688.03;5180377;27;20079;-86
2024/04/18 03:23:24;;;;;;;8.50;5.55;;;;;;;4.07;100.00;100694.88;5191993;27;20008;-85
2024/04/18 03:25:55;;;;;;;6.80;5.93;;;;;;;4.03;100.00;100699.97;5187185;27;20099;-88
2024/04/18 03:28:21;;;;;;;10.75;8.57;;;;;;;3.97;100.00;100701.59;5219577;27;20012;-85
2024/04/18 03:30:52;;;;;;;7.90;6.25;;;;;;;3.96;100.00;100698.97;5183151;27;20033;-85
2024/04/18 03:33:21;;;;;;;9.30;6.43;;;;;;;3.96;100.00;100704.16;5224388;27;20090;-84
2024/04/18 03:35:50;;;;;;;6.65;5.95;;;;;;;3.95;100.00;100711.06;5184944;27;20094;-85
2024/04/18 03:38:22;;;;;;;8.80;6.90;;;;;;;3.95;100.00;100712.75;5210731;27;20023;-84
2024/04/18 03:41:00;;;;;;;7.90;6.63;;;;;;;3.97;100.00;100713.69;5133943;27;20011;-85
2024/04/18 03:43:28;;;;;;;10.15;6.85;;;;;;;3.99;100.00;100717.19;5237107;27;20019;-86
2024/04/18 03:46:03;;;;;;;8.70;7.15;;;;;;;4.02;100.00;100718.97;5185362;27;20573;-87
2024/04/18 03:48:31;;;;;;;7.90;6.55;;;;;;;4.00;100.00;100713.72;5162817;27;20024;-87
2024/04/18 03:51:00;;;;;;;8.38;6.78;;;;;;;4.01;100.00;100717.22;5193484;27;20026;-86
2024/04/18 03:53:29;;;;;;;9.60;7.65;;;;;;;4.02;100.00;100711.19;5168066;27;20026;-84
2024/04/18 03:55:54;;;;;;;14.13;7.30;;;;;;;4.05;100.00;100724.19;5187070;27;20054;-86
2024/04/18 03:58:46;;;;;;;9.88;7.40;;;;;;;4.09;100.00;100719.09;5187699;27;20000;-85
2024/04/18 04:01:18;;;;;;;12.80;7.63;;;;;;;4.12;100.00;100718.28;5171528;27;20497;-85
2024/04/18 04:03:48;;;;;;;11.68;8.27;;;;;;;4.16;100.00;100725.28;5162958;27;20012;-86
2024/04/18 04:06:18;;;;;;;13.10;8.38;;;;;;;4.18;100.00;100725.28;5223807;27;20020;-87
2024/04/18 04:08:49;;;;;;;10.40;7.90;;;;;;;4.17;100.00;100724.41;5191673;27;20015;-85
2024/04/18 04:11:18;;;;;;;10.10;7.00;;;;;;;4.18;100.00;100731.34;5209733;27;20012;-86
2024/04/18 04:13:46;;;;;;;10.32;8.98;;;;;;;4.20;100.00;100737.44;5193086;27;20068;-85
2024/04/18 04:16:12;;;;;;;9.18;7.78;;;;;;;4.20;100.00;100734.84;5192551;27;20027;-84
2024/04/18 04:18:44;;;;;;;9.98;7.10;;;;;;;4.25;100.00;100735.81;5186285;27;20023;-85
2024/04/18 04:21:12;;;;;;;11.98;8.65;;;;;;;4.27;100.00;100741.00;5199959;27;20004;-84
2024/04/18 04:23:42;;;;;;;9.00;7.45;;;;;;;4.28;100.00;100750.53;5219179;27;20031;-86
2024/04/18 04:26:09;;;;;;;8.13;7.32;;;;;;;4.25;100.00;100746.16;5189535;27;20012;-84
2024/04/18 04:28:37;;;;;;;9.48;7.30;;;;;;;4.16;100.00;100748.59;5162515;27;20036;-84
2024/04/18 04:31:06;;;;;;;9.75;8.02;;;;;;;4.11;100.00;100761.44;5189445;27;20424;-86
2024/04/18 04:33:35;;;;;;;11.73;8.32;;;;;;;4.10;100.00;100758.81;5152001;27;20126;-86
2024/04/18 04:36:03;;;;;;;10.65;7.57;;;;;;;4.19;100.00;100769.38;5159170;27;20472;-85
2024/04/18 04:38:31;;;;;;;8.02;7.22;;;;;;;4.27;100.00;100772.09;5185089;27;20016;-82
2024/04/18 04:40:56;;;;;;;13.27;7.43;;;;;;;4.32;100.00;100770.47;5219487;27;20429;-86
2024/04/18 04:43:25;;;;;;;9.63;6.72;;;;;;;4.34;100.00;100778.28;5194358;27;20020;-84
2024/04/18 04:45:54;;;;;;;9.10;7.28;;;;;;;4.45;100.00;100780.22;5193159;27;20031;-84
2024/04/18 04:48:23;;;;;;;8.18;6.75;;;;;;;4.46;100.00;100788.88;5183292;27;20015;-87
2024/04/18 04:50:58;;;;;;;7.93;6.47;;;;;;;4.54;100.00;100791.59;5190168;27;20012;-86
2024/04/18 04:53:27;;;;;;;12.88;7.22;;;;;;;4.54;100.00;100794.19;5191885;27;20028;-84
2024/04/18 04:55:55;;;;;;;10.00;5.93;;;;;;;4.54;100.00;100800.25;5193224;27;20015;-85
2024/04/18 04:58:25;;;;;;;6.80;5.85;;;;;;;4.55;100.00;100804.59;5211365;27;20040;-86
2024/04/18 05:00:53;;;;;;;8.68;6.07;;;;;;;4.55;100.00;100795.91;5190351;27;20726;-83
2024/04/18 05:03:25;;;;;;;5.72;5.13;;;;;;;4.55;100.00;100801.09;5212291;27;20039;-86
2024/04/18 05:05:50;;;;;;;6.97;4.82;;;;;;;4.56;100.00;100808.06;5180786;27;20800;-81
2024/04/18 05:08:20;;;;;;;6.65;5.95;;;;;;;4.65;100.00;100810.81;5173559;27;20491;-83
2024/04/18 05:10:46;;;;;;;6.65;5.30;;;;;;;4.68;100.00;100812.56;5166031;27;20350;-85
2024/04/18 05:13:18;;;;;;;5.88;5.25;;;;;;;4.73;100.00;100809.25;5149886;27;20060;-83
2024/04/18 05:15:46;;;;;;;5.53;4.68;;;;;;;4.79;100.00;100805.88;5151613;27;20028;-83
2024/04/18 05:18:15;;;;;;;6.85;5.30;;;;;;;4.85;100.00;100812.88;5152309;27;20469;-86
2024/04/18 05:20:41;;;;;;;7.90;5.07;;;;;;;4.84;100.00;100813.72;5180461;27;20423;-85
2024/04/18 05:23:09;;;;;;;8.10;5.60;;;;;;;4.79;100.00;100816.25;5187664;27;20007;-86
2024/04/18 05:25:35;;;;;;;6.85;4.90;;;;;;;4.71;100.00;100823.03;5168578;27;20012;-86
2024/04/18 05:28:10;;;;;;;7.53;5.47;;;;;;;4.61;100.00;100821.97;5210930;27;20018;-85
2024/04/18 05:33:40;;;;;;;7.28;4.72;;;;;;;4.47;100.00;100837.25;5110966;27;20013;-85
2024/04/18 05:36:13;;;;;;;8.05;4.80;;;;;;;4.45;100.00;100841.56;5140780;27;20084;-86
2024/04/18 05:38:41;;;;;;;5.53;5.03;;;;;;;4.57;100.00;100846.97;5141123;27;20026;-86
2024/04/18 05:41:09;;;;;;;6.28;4.53;;;;;;;4.61;100.00;100845.31;5214596;27;20026;-86
2024/04/18 05:43:38;;;;;;;6.85;5.35;;;;;;;4.64;100.00;100846.25;5190295;27;20030;-85
2024/04/18 05:46:28;;;;;;;;;;;;;;;;;;;;;
2024/04/18 05:49:00;;;;;;;6.43;4.40;;;;;;;4.78;100.00;100849.09;5178167;27;20116;-85
2024/04/18 05:51:26;;;;;;;6.97;4.93;;;;;;;4.89;100.00;100854.47;5212632;27;20004;-84
2024/04/18 05:53:58;;;;;;;6.88;5.53;;;;;;;5.03;100.00;100857.31;5161952;27;20031;-87
2024/04/18 05:56:36;;;;;;;7.22;5.20;;;;;;;5.13;100.00;100859.19;5219172;27;20023;-86
2024/04/18 05:59:04;;;;;;;6.85;5.22;;;;;;;5.28;100.00;100863.75;5200953;27;20027;-90
2024/04/18 06:01:32;;;;;;;5.28;4.25;;;;;;;5.43;100.00;100867.44;5166788;27;20014;-88
2024/04/18 06:04:02;;;;;;;7.53;5.40;;;;;;;5.58;100.00;100866.78;5204308;27;20023;-89
2024/04/18 06:06:30;;;;;;;10.32;4.90;;;;;;;5.70;100.00;100872.19;5169135;27;20415;-84
2024/04/18 06:09:04;;;;;;;7.45;6.35;;;;;;;5.76;100.00;100877.47;5183754;27;20022;-87
2024/04/18 06:11:35;;;;;;;6.55;5.35;;;;;;;5.70;100.00;100876.53;5183783;27;20423;-84
2024/04/18 06:14:07;;;;;;;6.18;5.18;;;;;;;5.65;100.00;100878.19;5168015;27;20015;-87
2024/04/18 06:16:44;;;;;;;6.72;5.55;;;;;;;5.72;100.00;100891.28;5208906;27;20007;-83
2024/04/18 06:19:14;;;;;;;9.88;6.38;;;;;;;5.76;100.00;100889.56;5187037;27;20035;-83
2024/04/18 06:21:42;;;;;;;11.95;8.02;;;;;;;5.72;100.00;100892.97;5186380;27;20012;-83
2024/04/18 06:24:11;;;;;;;5.70;5.20;;;;;;;5.70;100.00;100892.97;5214927;27;20022;-85
2024/04/18 06:26:39;;;;;;;9.13;6.13;;;;;;;5.74;100.00;100899.09;5193498;27;20011;-84
2024/04/18 06:29:07;;;;;;;7.20;6.13;;;;;;;5.91;100.00;100897.59;5212439;27;20018;-86
2024/04/18 06:31:36;;;;;;;10.30;6.85;;;;;;;6.01;100.00;100897.75;5183764;27;20023;-85
2024/04/18 06:34:04;;;;;;;6.45;5.70;;;;;;;6.15;100.00;100901.41;5185188;27;20027;-85
2024/04/18 06:36:32;;;;;;;7.28;6.53;;;;;;;6.12;100.00;100902.25;5202425;27;20022;-86
2024/04/18 06:39:01;;;;;;;7.18;6.25;;;;;;;6.24;100.00;100901.53;5209358;27;20011;-85
2024/04/18 06:41:31;;;;;;;9.55;6.30;;;;;;;6.28;100.00;100902.44;5215549;27;20012;-85
2024/04/18 06:44:03;;;;;;;9.93;6.80;;;;;;;6.42;100.00;100913.03;5184219;27;20067;-88
2024/04/18 06:46:31;;;;;;;7.53;6.70;;;;;;;6.64;100.00;100906.34;5217942;27;20007;-84
2024/04/18 06:49:06;;;;;;;8.50;6.22;;;;;;;8.38;100.00;100909.44;5215950;27;20023;-88
2024/04/18 06:51:34;;;;;;;11.23;6.60;;;;;;;12.45;81.82;100902.59;5207684;27;20008;-86
2024/04/18 06:54:04;;;;;;;8.70;6.45;;;;;;;14.08;66.60;100906.16;5190199;27;20042;-84
2024/04/18 06:56:33;;;;;;;9.68;6.22;;;;;;;15.48;59.38;100909.22;5183555;27;20008;-86
2024/04/18 06:59:04;;;;;;;8.93;6.43;;;;;;;15.81;58.17;100912.81;5218741;27;20012;-85
2024/04/18 07:01:32;;;;;;;7.47;5.75;;;;;;;15.78;58.74;100904.06;5192287;27;20090;-87
2024/04/18 07:04:05;;;;;;;10.15;6.35;;;;;;;15.17;58.99;100913.47;5182767;27;20030;-87
2024/04/18 07:06:34;;;;;;;6.78;5.60;;;;;;;14.78;57.41;100910.84;5179795;27;20368;-85
2024/04/18 07:09:02;;;;;;;6.35;5.30;;;;;;;12.50;65.54;100926.13;5210831;27;20015;-86
2024/04/18 07:11:30;;;;;;;7.30;6.68;;;;;;;12.30;68.97;100924.63;5210099;27;20011;-84
2024/04/18 07:14:00;;;;;;;6.97;6.30;;;;;;;15.03;60.85;100912.94;5181713;27;20575;-84
2024/04/18 07:16:28;;;;;;;8.13;5.80;;;;;;;16.22;56.35;100912.56;5180189;27;20003;-86
2024/04/18 07:18:57;;;;;;;8.23;5.15;;;;;;;16.87;53.61;100916.81;5185731;27;20019;-84
2024/04/18 07:21:25;;;;;;;5.68;5.22;;;;;;;15.58;55.42;100916.00;5186058;27;20107;-84
2024/04/18 07:23:53;;;;;;;5.82;5.22;;;;;;;15.90;54.74;100922.22;5216071;27;20008;-85
2024/04/18 07:26:24;;;;;;;7.13;6.43;;;;;;;16.56;50.04;100916.88;5189836;27;20015;-84
2024/04/18 07:28:52;;;;;;;5.47;4.70;;;;;;;17.15;49.95;100921.25;5184270;27;20091;-84
2024/04/18 07:31:21;;;;;;;5.18;4.68;;;;;;;17.95;47.08;100930.09;5152761;27;20018;-84
2024/04/18 07:33:50;;;;;;;5.78;4.35;;;;;;;19.01;45.92;100927.94;5180244;27;20070;-81
2024/04/18 07:36:21;;;;;;;4.38;3.97;;;;;;;19.43;45.03;100919.16;5185061;27;20343;-81
2024/04/18 07:38:50;;;;;;;4.55;3.85;;;;;;;19.13;44.55;100929.25;5148324;27;20765;-80
2024/04/18 07:41:19;;;;;;;4.47;3.53;;;;;;;19.61;43.06;100924.63;5184235;27;20552;-81
2024/04/18 07:43:47;;;;;;;4.32;3.40;;;;;;;19.45;42.55;100922.63;5210147;27;20026;-81
2024/04/18 07:46:16;;;;;;;5.32;3.20;;;;;;;18.07;43.92;100932.31;5202711;27;20008;-83
2024/04/18 07:48:46;;;;;;;7.20;4.07;;;;;;;18.69;44.47;100935.34;5181690;27;20149;-84
2024/04/18 07:51:14;;;;;;;3.80;3.50;;;;;;;19.33;43.73;100933.72;5205074;27;20022;-81
2024/04/18 07:53:44;;;;;;;7.80;3.47;;;;;;;18.38;44.19;100940.94;5185901;27;20004;-83
2024/04/18 07:56:12;;;;;;;8.50;5.40;;;;;;;15.23;51.49;100949.41;5178439;27;20052;-85
2024/04/18 07:58:40;;;;;;;7.38;5.30;;;;;;;13.93;53.81;100952.03;5207393;27;20503;-83
2024/04/18 08:01:11;;;;;;;4.68;3.35;;;;;;;13.95;55.12;100949.38;5182981;27;20018;-83
2024/04/18 08:03:55;;;;;;;4.65;4.18;;;;;;;16.67;48.71;100942.97;5237263;27;20085;-84
2024/04/18 08:06:24;;;;;;;3.97;2.95;;;;;;;17.31;46.56;100944.56;5208987;27;20030;-84
2024/04/18 08:08:49;;;;;;;4.47;3.25;;;;;;;18.42;44.52;100947.84;5177520;27;20134;-84
2024/04/18 08:11:18;;;;;;;3.08;2.78;;;;;;;18.68;43.41;100946.84;5155527;27;20023;-86
2024/04/18 08:13:46;;;;;;;3.78;3.47;;;;;;;17.99;42.75;100940.53;5175958;27;20023;-84
2024/04/18 08:16:14;;;;;;;4.60;2.67;;;;;;;19.14;41.58;100938.94;5171706;27;20052;-86
2024/04/18 08:18:43;;;;;;;3.60;3.30;;;;;;;19.02;40.41;100945.59;5169269;27;20302;-83
2024/04/18 08:21:12;;;;;;;2.90;2.60;;;;;;;18.84;40.98;100950.66;5171497;27;20754;-83
2024/04/18 08:23:41;;;;;;;3.72;2.97;;;;;;;19.21;40.90;100955.47;5150342;27;20372;-82
2024/04/18 08:26:12;;;;;;;4.97;2.47;;;;;;;19.73;40.47;100952.44;5146713;27;20499;-83
2024/04/18 08:28:40;;;;;;;2.47;1.60;;;;;;;20.87;37.80;100958.06;5174189;27;20009;-82
2024/04/18 08:31:09;;;;;;;2.65;2.45;;;;;;;20.00;38.24;100959.25;5172119;27;20040;-86
2024/04/18 08:33:40;;;;;;;2.17;2.03;;;;;;;20.85;37.37;100967.06;5172519;27;20023;-84
2024/04/18 08:36:09;;;;;;;2.90;2.67;;;;;;;20.16;37.22;100966.56;5148492;27;20013;-83
2024/04/18 08:38:40;;;;;;;1.95;1.80;;;;;;;18.92;39.11;100978.72;5172978;27;20013;-83
2024/04/18 08:41:16;;;;;;;1.52;1.50;;;;;;;19.03;38.52;100975.63;5173644;27;20008;-85
2024/04/18 08:43:44;;;;;;;1.83;1.73;;;;;;;19.77;37.33;100984.13;5158660;27;20469;-85
2024/04/18 08:46:16;;;;;;;3.22;2.08;;;;;;;21.02;36.29;100969.75;5174828;27;20019;-85
2024/04/18 08:48:45;;;;;;;2.72;2.38;;;;;;;20.91;35.79;100967.63;5179656;27;20105;-83
2024/04/18 08:51:15;;;;;;;3.17;2.13;;;;;;;18.69;38.72;100961.84;5185269;27;20027;-85
2024/04/18 08:53:43;;;;;;;4.72;2.13;;;;;;;16.95;42.18;100976.56;5171284;27;20114;-83
2024/04/18 08:56:16;;;;;;;1.70;1.60;;;;;;;14.70;46.52;100976.03;5174091;27;20024;-86
2024/04/18 08:58:44;;;;;;;2.25;1.90;;;;;;;13.80;48.20;100979.47;5173930;27;20363;-84
2024/04/18 09:01:12;;;;;;;3.25;1.70;;;;;;;13.67;49.20;100989.31;5171011;27;20013;-85
2024/04/18 09:03:44;;;;;;;2.65;1.77;;;;;;;14.05;46.47;100978.16;5172023;27;20016;-85
2024/04/18 09:06:16;;;;;;;2.10;1.60;;;;;;;15.99;43.73;100980.06;5199218;27;20023;-82
2024/04/18 09:08:45;;;;;;;3.22;1.90;;;;;;;17.99;41.48;100976.72;5168805;27;20091;-84
2024/04/18 09:11:13;;;;;;;3.08;2.40;;;;;;;18.63;38.86;100972.69;5167376;27;20105;-83
2024/04/18 09:13:41;;;;;;;2.90;2.38;;;;;;;17.98;40.02;100975.88;5145393;27;20011;-85
2024/04/18 09:16:09;;;;;;;3.83;2.97;;;;;;;15.61;43.96;100988.94;5178970;27;20022;-82
2024/04/18 09:18:38;;;;;;;3.95;2.35;;;;;;;15.59;44.76;100994.28;5182281;27;20004;-82
2024/04/18 09:21:13;;;;;;;3.20;2.95;;;;;;;16.34;42.95;100980.91;5177007;27;20024;-88
2024/04/18 09:23:45;;;;;;;1.60;1.50;;;;;;;16.42;41.26;100987.75;5208556;27;20019;-84
2024/04/18 09:26:15;;;;;;;1.95;1.60;;;;;;;15.66;42.71;100985.28;5163255;27;20016;-86
2024/04/18 09:28:50;;;;;;;3.33;2.47;;;;;;;16.00;43.47;100999.44;5154253;27;20027;-87
2024/04/18 09:31:19;;;;;;;3.50;2.47;;;;;;;17.24;41.91;100990.66;5185280;27;20027;-86
2024/04/18 09:33:58;;;;;;;4.65;2.40;;;;;;;18.17;40.49;100992.00;5172077;27;20012;-87
2024/04/18 09:36:28;;;;;;;1.70;1.60;;;;;;;17.63;37.86;100992.94;5190069;27;20721;-84
2024/04/18 09:39:01;;;;;;;5.15;1.85;;;;;;;16.43;40.51;100997.41;5155883;27;20011;-87
2024/04/18 09:41:36;;;;;;;1.98;1.75;;;;;;;16.95;40.60;100995.06;5176041;27;20147;-86
2024/04/18 09:44:26;;;;;;;2.22;2.05;;;;;;;18.95;37.15;100995.34;5156560;27;20008;-87
2024/04/18 09:46:58;;;;;;;1.60;1.50;;;;;;;19.77;35.63;100984.13;5155964;27;20008;-87
2024/04/18 09:49:30;;;;;;;1.40;1.30;;;;;;;18.71;38.22;100988.31;5145830;27;21283;-87
2024/04/18 09:51:59;;;;;;;2.17;1.70;;;;;;;17.41;40.21;100990.97;5178660;27;20008;-87
2024/04/18 09:54:28;;;;;;;1.70;1.60;;;;;;;15.83;42.36;100992.81;5181113;27;20063;-85
2024/04/18 09:57:01;;;;;;;1.63;1.52;;;;;;;14.24;44.62;100993.59;5177070;27;21322;-84
2024/04/18 09:59:35;;;;;;;1.60;1.50;;;;;;;13.08;45.88;101001.56;5176486;27;20023;-86
2024/04/18 10:02:16;;;;;;;3.03;1.33;;;;;;;14.98;43.75;100993.88;5179621;27;20008;-86
2024/04/18 10:04:43;;;;;;;3.15;1.27;;;;;;;16.70;39.55;100986.06;5148782;27;20013;-85
2024/04/18 10:07:16;;;;;;;1.75;1.27;;;;;;;18.17;38.31;100978.75;5181475;27;20119;-85
2024/04/18 10:09:47;;;;;;;3.78;1.48;;;;;;;19.14;35.19;100968.97;5176616;27;20020;-85
2024/04/18 10:12:21;;;;;;;2.20;1.23;;;;;;;18.05;37.36;100973.88;5147207;27;20017;-84
2024/04/18 10:14:52;;;;;;;2.40;0.95;;;;;;;16.57;39.99;100986.44;5118443;27;20023;-86
2024/04/18 10:17:26;;;;;;;0.95;0.88;;;;;;;15.21;40.00;100994.25;5115724;27;20013;-85
2024/04/18 10:19:55;;;;;;;3.05;1.00;;;;;;;13.89;42.81;100997.72;5166555;27;20014;-83
2024/04/18 10:22:36;;;;;;;3.10;0.95;;;;;;;15.10;42.05;100998.91;5168052;27;20005;-85
2024/04/18 10:25:08;;;;;;;2.15;0.95;;;;;;;16.72;37.79;100987.78;5171664;27;20041;-86
2024/04/18 10:27:46;;;;;;;1.33;0.82;;;;;;;15.46;39.51;100990.16;5139878;27;20110;-83
2024/04/18 10:30:18;;;;;;;2.25;0.98;;;;;;;14.47;42.27;100994.91;5123182;27;20020;-86
2024/04/18 10:32:48;;;;;;;1.80;1.70;;;;;;;13.62;45.69;100999.06;5149115;27;20065;-83
2024/04/18 10:35:19;;;;;;;3.50;3.15;;;;;;;12.51;48.80;101004.03;5121630;27;20584;-84
2024/04/18 10:37:51;;;;;;;3.15;2.20;;;;;;;11.88;50.81;100998.50;5118737;27;20016;-85
2024/04/18 10:40:23;;;;;;;2.88;2.67;;;;;;;11.89;51.06;100989.75;5115264;27;20017;-84
2024/04/18 10:43:11;;;;;;;4.13;2.20;;;;;;;14.65;46.54;100989.31;5167282;27;20017;-85
2024/04/18 10:45:40;;;;;;;3.28;2.25;;;;;;;17.97;41.06;100981.25;5176774;27;20041;-83
2024/04/18 10:48:21;;;;;;;2.50;2.30;;;;;;;19.62;37.33;100979.44;5152882;27;20029;-87
2024/04/18 10:50:53;;;;;;;1.38;1.10;;;;;;;18.31;37.72;100982.69;5153977;27;20069;-87
2024/04/18 10:53:26;;;;;;;2.17;1.90;;;;;;;17.16;38.85;100993.56;5147054;27;20024;-86
2024/04/18 10:55:54;;;;;;;2.55;1.67;;;;;;;15.43;41.77;100990.25;5175543;27;20009;-88
2024/04/18 10:58:25;;;;;;;2.53;1.65;;;;;;;14.21;44.82;100991.03;5151943;27;20199;-87
2024/04/18 11:01:02;;;;;;;4.63;2.22;;;;;;;13.73;46.09;100990.09;5153664;27;20020;-87
2024/04/18 11:03:31;;;;;;;3.13;1.58;;;;;;;13.03;46.78;101002.50;5175385;27;20016;-89
2024/04/18 11:06:05;;;;;;;3.05;2.13;;;;;;;12.49;48.01;100984.78;5148149;27;20005;-87
2024/04/18 11:08:38;;;;;;;2.33;1.55;;;;;;;12.48;48.33;100989.19;5150022;27;20013;-88
2024/04/18 11:11:16;;;;;;;3.33;1.92;;;;;;;13.68;46.89;100980.53;5176624;27;20005;-86
2024/04/18 11:13:44;;;;;;;3.05;2.22;;;;;;;13.75;46.37;100973.41;5149925;27;20016;-89
2024/04/18 11:16:12;;;;;;;5.75;1.85;;;;;;;13.66;47.35;100983.22;5129928;27;20049;-88
2024/04/18 11:21:30;;;;;;;5.05;1.70;;;;;;;13.27;46.81;100982.91;5149354;27;20005;-90
2024/04/18 11:23:59;;;;;;;3.63;1.55;;;;;;;13.54;46.04;100991.28;5122840;27;20072;-87
2024/04/18 11:26:29;;;;;;;3.38;1.10;;;;;;;13.79;45.60;100978.59;5149399;27;20028;-89
2024/04/18 11:29:11;;;;;;;2.25;1.40;;;;;;;14.99;44.16;100980.69;5160630;27;20013;-87
2024/04/18 11:31:43;;;;;;;1.80;1.58;;;;;;;15.13;43.81;100977.72;5161185;27;20130;-89
2024/04/18 11:34:12;;;;;;;3.13;2.10;;;;;;;15.10;44.44;100982.22;5150851;27;20019;-87
2024/04/18 11:36:44;;;;;;;3.40;2.13;;;;;;;14.71;46.23;100988.31;5144687;27;20013;-89
2024/04/18 11:39:17;;;;;;;7.90;2.35;;;;;;;14.18;46.65;100980.53;5150142;27;20395;-89
2024/04/18 11:41:50;;;;;;;;;;;;;;;13.69;47.21;100980.50;5177424;27;20085;-88
2024/04/18 11:44:20;;;;;;;3.13;2.15;;;;;;;13.76;47.66;100975.16;5154936;27;19936;-87